createdAt,value
2018-09-05T00:02:11.470Z,16.30
2018-09-05T00:04:40.039Z,13.17
2018-09-05T00:07:08.601Z,14.20
2018-09-05T00:09:37.139Z,14.10
2018-09-05T00:12:06.022Z,13.40
2018-09-05T00:14:34.683Z,20.70
2018-09-05T00:17:03.242Z,11.83
2018-09-05T00:19:31.749Z,14.87
2018-09-05T00:22:00.271Z,22.53
2018-09-05T00:24:28.771Z,17.70
2018-09-05T00:26:57.317Z,15.70
2018-09-05T00:29:26.201Z,16.30
2018-09-05T00:31:54.752Z,15.40
2018-09-05T00:34:23.238Z,14.03
2018-09-05T00:36:51.785Z,13.03
2018-09-05T00:39:20.325Z,13.43
2018-09-05T00:41:48.854Z,18.23
2018-09-05T00:44:17.362Z,18.50
2018-09-05T00:46:45.870Z,13.90
2018-09-05T00:49:14.451Z,20.53
2018-09-05T00:51:42.953Z,18.23
2018-09-05T00:54:11.517Z,13.37
2018-09-05T00:56:40.102Z,21.27
2018-09-05T00:59:08.633Z,21.80
2018-09-05T01:01:37.158Z,13.00
2018-09-05T01:04:05.886Z,12.50
2018-09-05T01:06:34.596Z,14.87
2018-09-05T01:09:03.181Z,12.57
2018-09-05T01:11:31.741Z,22.20
2018-09-05T01:14:00.270Z,12.93
2018-09-05T01:16:28.776Z,15.23
2018-09-05T01:18:57.371Z,14.63
2018-09-05T01:21:25.942Z,14.60
2018-09-05T01:23:54.527Z,12.93
2018-09-05T01:26:23.134Z,11.33
2018-09-05T01:28:51.628Z,11.43
2018-09-05T01:31:20.213Z,16.23
2018-09-05T01:33:48.732Z,16.33
2018-09-05T01:36:18.590Z,14.43
2018-09-05T01:38:47.109Z,14.00
2018-09-05T01:41:15.861Z,12.77
2018-09-05T01:43:44.826Z,12.87
2018-09-05T01:46:13.379Z,11.90
2018-09-05T01:48:41.926Z,12.60
2018-09-05T01:51:10.489Z,13.90
2018-09-05T01:53:39.073Z,11.90
2018-09-05T01:56:07.570Z,11.60
2018-09-05T01:58:36.141Z,10.97
2018-09-05T02:01:04.675Z,16.03
2018-09-05T02:03:33.216Z,11.77
2018-09-05T02:06:01.720Z,12.70
2018-09-05T02:08:30.299Z,10.70
2018-09-05T02:10:58.782Z,10.70
2018-09-05T02:13:27.292Z,10.77
2018-09-05T02:15:55.818Z,12.30
2018-09-05T02:18:24.711Z,12.40
2018-09-05T02:20:53.281Z,11.90
2018-09-05T02:23:21.845Z,11.83
2018-09-05T02:25:50.346Z,10.27
2018-09-05T02:28:18.869Z,10.87
2018-09-05T02:30:47.398Z,10.07
2018-09-05T02:33:15.913Z,8.20
2018-09-05T02:35:44.408Z,9.87
2018-09-05T02:38:13.015Z,9.60
2018-09-05T02:40:41.493Z,9.90
2018-09-05T02:43:09.990Z,8.40
2018-09-05T02:45:38.521Z,12.13
2018-09-05T02:48:07.064Z,10.10
2018-09-05T02:50:35.589Z,12.27
2018-09-05T02:53:04.116Z,8.97
2018-09-05T02:55:37.978Z,15.70
2018-09-05T02:58:06.514Z,13.97
2018-09-05T03:00:34.996Z,9.60
2018-09-05T03:03:03.497Z,7.97
2018-09-05T03:05:31.981Z,10.50
2018-09-05T03:08:00.475Z,8.23
2018-09-05T03:10:28.954Z,6.03
2018-09-05T03:12:57.477Z,7.97
2018-09-05T03:15:26.010Z,9.70
2018-09-05T03:17:54.506Z,7.73
2018-09-05T03:20:23.022Z,8.33
2018-09-05T03:22:51.550Z,9.63
2018-09-05T03:25:20.071Z,9.30
2018-09-05T03:27:48.651Z,9.63
2018-09-05T03:30:17.151Z,11.30
2018-09-05T03:32:45.768Z,8.43
2018-09-05T03:35:14.214Z,7.40
2018-09-05T03:37:42.715Z,8.20
2018-09-05T03:40:11.181Z,8.40
2018-09-05T03:42:39.687Z,8.10
2018-09-05T03:45:08.187Z,15.83
2018-09-05T03:47:36.706Z,10.73
2018-09-05T03:50:06.183Z,9.10
2018-09-05T03:52:34.684Z,10.43
2018-09-05T03:55:03.179Z,16.73
2018-09-05T03:57:31.649Z,9.20
2018-09-05T04:00:00.147Z,8.83
2018-09-05T04:02:28.624Z,9.30
2018-09-05T04:04:58.154Z,8.10
2018-09-05T04:07:26.939Z,9.60
2018-09-05T04:09:55.430Z,8.07
2018-09-05T04:12:23.987Z,7.40
2018-09-05T04:14:52.490Z,6.80
2018-09-05T04:17:21.349Z,8.00
2018-09-05T04:19:50.057Z,10.97
2018-09-05T04:22:18.517Z,7.97
2018-09-05T04:24:47.043Z,13.73
2018-09-05T04:27:15.681Z,10.73
2018-09-05T04:29:44.195Z,9.80
2018-09-05T04:32:12.712Z,7.00
2018-09-05T04:34:41.197Z,7.50
2018-09-05T04:37:09.686Z,8.07
2018-09-05T04:39:38.191Z,7.27
2018-09-05T04:42:06.741Z,10.60
2018-09-05T04:44:35.227Z,7.50
2018-09-05T04:47:03.741Z,9.13
2018-09-05T04:49:32.245Z,7.33
2018-09-05T04:52:00.714Z,7.43
2018-09-05T04:54:29.221Z,9.17
2018-09-05T04:56:57.701Z,5.93
2018-09-05T04:59:26.268Z,6.77
2018-09-05T05:01:54.851Z,5.80
2018-09-05T05:04:23.550Z,18.03
2018-09-05T05:06:52.053Z,7.10
2018-09-05T05:09:20.546Z,8.50
2018-09-05T05:11:49.037Z,10.10
2018-09-05T05:14:17.534Z,8.10
2018-09-05T05:16:46.002Z,7.50
2018-09-05T05:19:14.510Z,7.00
2018-09-05T05:21:43.096Z,7.17
2018-09-05T05:24:11.676Z,15.83
2018-09-05T05:26:40.166Z,9.33
2018-09-05T05:29:08.711Z,7.40
2018-09-05T05:31:37.249Z,6.30
2018-09-05T05:34:05.831Z,7.20
2018-09-05T05:36:34.416Z,11.30
2018-09-05T05:39:03.084Z,6.77
2018-09-05T05:41:31.584Z,7.27
2018-09-05T05:44:00.122Z,9.40
2018-09-05T05:46:28.702Z,7.40
2018-09-05T05:48:57.161Z,8.43
2018-09-05T05:51:25.715Z,7.67
2018-09-05T05:53:54.211Z,8.87
2018-09-05T05:56:22.717Z,11.10
2018-09-05T05:58:51.184Z,8.67
2018-09-05T06:01:19.831Z,9.97
2018-09-05T06:03:48.243Z,10.10
2018-09-05T06:06:16.913Z,11.70
2018-09-05T06:08:45.241Z,13.30
2018-09-05T06:11:13.757Z,13.90
2018-09-05T06:13:42.236Z,12.23
2018-09-05T06:16:10.854Z,10.43
2018-09-05T06:18:40.229Z,7.30
2018-09-05T06:21:08.824Z,11.50
2018-09-05T06:23:37.397Z,8.17
2018-09-05T06:26:06.317Z,11.23
2018-09-05T06:28:35.193Z,10.95
2018-09-05T06:31:04.142Z,8.50
2018-09-05T06:33:32.575Z,10.50
2018-09-05T06:36:01.108Z,11.20
2018-09-05T06:38:29.648Z,11.30
2018-09-05T06:40:58.198Z,10.53
2018-09-05T06:43:26.784Z,9.53
2018-09-05T06:45:55.329Z,10.50
2018-09-05T06:48:23.847Z,11.90
2018-09-05T06:50:56.586Z,13.17
2018-09-05T06:53:25.097Z,18.40
2018-09-05T06:55:53.642Z,9.47
2018-09-05T06:58:22.284Z,11.80
2018-09-05T07:00:50.831Z,10.87
2018-09-05T07:03:19.462Z,12.70
2018-09-05T07:05:48.334Z,10.57
2018-09-05T07:08:16.829Z,12.50
2018-09-05T07:10:45.414Z,16.80
2018-09-05T07:13:13.925Z,11.57
2018-09-05T07:15:42.491Z,17.03
2018-09-05T07:18:11.010Z,18.90
2018-09-05T07:20:39.534Z,14.37
2018-09-05T07:23:08.105Z,20.10
2018-09-05T07:25:36.632Z,14.57
2018-09-05T07:28:05.395Z,15.00
2018-09-05T07:30:34.088Z,17.10
2018-09-05T07:33:02.514Z,16.23
2018-09-05T07:35:31.045Z,13.80
2018-09-05T07:37:59.560Z,17.03
2018-09-05T07:40:28.063Z,16.40
2018-09-05T07:42:56.630Z,20.10
2018-09-05T07:45:25.198Z,17.70
2018-09-05T07:47:53.727Z,16.30
2018-09-05T07:50:22.259Z,16.67
2018-09-05T07:52:50.778Z,17.23
2018-09-05T07:55:19.426Z,15.33
2018-09-05T07:57:47.931Z,19.83
2018-09-05T08:00:16.409Z,17.93
2018-09-05T08:02:44.926Z,12.87
2018-09-05T08:05:13.424Z,21.00
2018-09-05T08:07:41.963Z,17.43
2018-09-05T08:10:10.457Z,12.33
2018-09-05T08:12:38.958Z,15.03
2018-09-05T08:15:07.485Z,20.70
2018-09-05T08:17:35.982Z,12.50
2018-09-05T08:20:04.663Z,15.20
2018-09-05T08:22:33.195Z,12.13
2018-09-05T08:25:01.682Z,14.47
2018-09-05T08:27:30.203Z,11.97
2018-09-05T08:29:58.766Z,17.80
2018-09-05T08:32:27.349Z,15.27
2018-09-05T08:34:55.952Z,19.87
2018-09-05T08:37:24.683Z,14.10
2018-09-05T08:39:52.998Z,12.30
2018-09-05T08:42:21.675Z,11.90
2018-09-05T08:44:50.349Z,11.77
2018-09-05T08:47:18.738Z,14.10
2018-09-05T08:49:47.245Z,18.00
2018-09-05T08:52:15.785Z,15.33
2018-09-05T08:54:44.321Z,12.17
2018-09-05T08:57:12.853Z,15.43
2018-09-05T08:59:41.360Z,14.73
2018-09-05T09:02:09.882Z,14.97
2018-09-05T09:04:38.407Z,15.77
2018-09-05T09:07:06.957Z,16.80
2018-09-05T09:09:35.518Z,12.87
2018-09-05T09:12:04.041Z,15.90
2018-09-05T09:14:32.584Z,17.50
2018-09-05T09:17:01.127Z,18.60
2018-09-05T09:19:29.763Z,18.30
2018-09-05T09:21:58.530Z,18.70
2018-09-05T09:24:27.104Z,18.43
2018-09-05T09:26:55.634Z,18.20
2018-09-05T09:29:24.147Z,17.93
2018-09-05T09:31:52.687Z,18.37
2018-09-05T09:34:21.232Z,16.93
2018-09-05T09:36:49.746Z,18.63
2018-09-05T09:39:18.276Z,19.90
2018-09-05T09:41:46.793Z,22.13
2018-09-05T09:44:15.390Z,17.37
2018-09-05T09:46:44.017Z,19.80
2018-09-05T09:49:12.485Z,16.20
2018-09-05T09:51:41.009Z,18.97
2018-09-05T09:54:09.791Z,20.40
2018-09-05T09:56:38.318Z,19.20
2018-09-05T09:59:06.881Z,18.77
2018-09-05T10:01:40.802Z,17.60
2018-09-05T10:04:14.645Z,19.37
2018-09-05T10:06:48.447Z,20.50
2018-09-05T10:09:22.627Z,20.10
2018-09-05T10:11:56.403Z,34.73
2018-09-05T10:14:30.235Z,18.93
2018-09-05T10:17:04.087Z,20.80
2018-09-05T10:19:32.631Z,19.37
2018-09-05T10:22:01.143Z,19.67
2018-09-05T10:24:29.710Z,22.33
2018-09-05T10:26:58.255Z,19.47
2018-09-05T10:29:26.781Z,17.13
2018-09-05T10:31:55.301Z,18.53
2018-09-05T10:34:23.937Z,21.53
2018-09-05T10:36:52.444Z,19.47
2018-09-05T10:39:21.047Z,19.57
2018-09-05T10:41:49.531Z,19.00
2018-09-05T10:44:18.114Z,21.23
2018-09-05T10:46:46.574Z,18.60
2018-09-05T10:49:15.079Z,20.97
2018-09-05T10:51:49.011Z,17.10
2018-09-05T10:54:17.481Z,20.77
2018-09-05T10:56:45.979Z,17.70
2018-09-05T10:59:14.494Z,18.80
2018-09-05T11:01:43.065Z,23.30
2018-09-05T11:04:11.646Z,21.70
2018-09-05T11:06:40.333Z,20.03
2018-09-05T11:09:10.585Z,17.67
2018-09-05T11:11:39.684Z,16.77
2018-09-05T11:14:09.126Z,17.10
2018-09-05T11:16:37.855Z,20.27
2018-09-05T11:19:06.793Z,21.57
2018-09-05T11:21:35.362Z,19.90
2018-09-05T11:24:03.885Z,17.57
2018-09-05T11:26:32.399Z,19.17
2018-09-05T11:29:01.002Z,20.27
2018-09-05T11:31:29.574Z,19.10
2018-09-05T11:33:58.089Z,20.63
2018-09-05T11:36:26.617Z,18.87
2018-09-05T11:38:55.147Z,19.83
2018-09-05T11:41:23.667Z,19.10
2018-09-05T11:43:52.342Z,18.40
2018-09-05T11:46:21.090Z,16.90
2018-09-05T11:48:49.601Z,24.17
2018-09-05T11:51:18.118Z,18.53
2018-09-05T11:53:46.620Z,20.77
2018-09-05T11:56:15.169Z,24.27
2018-09-05T11:58:43.689Z,20.60
2018-09-05T12:01:12.224Z,20.03
2018-09-05T12:03:40.749Z,18.50
2018-09-05T12:06:09.305Z,19.83
2018-09-05T12:08:37.808Z,17.07
2018-09-05T12:11:06.375Z,21.63
2018-09-05T12:13:34.878Z,21.63
2018-09-05T12:16:03.437Z,20.17
2018-09-05T12:18:31.948Z,24.27
2018-09-05T12:21:00.498Z,22.43
2018-09-05T12:23:29.015Z,19.53
2018-09-05T12:25:57.612Z,17.07
2018-09-05T12:28:26.130Z,18.07
2018-09-05T12:30:54.672Z,27.23
2018-09-05T12:33:23.161Z,20.03
2018-09-05T12:35:51.673Z,16.27
2018-09-05T12:38:20.172Z,16.90
2018-09-05T12:40:48.690Z,21.07
2018-09-05T12:43:17.172Z,43.10
2018-09-05T12:45:45.727Z,16.90
2018-09-05T12:48:14.215Z,18.83
2018-09-05T12:50:42.728Z,18.40
2018-09-05T12:53:11.226Z,25.90
2018-09-05T12:55:39.756Z,19.50
2018-09-05T12:58:08.290Z,18.77
2018-09-05T13:00:36.859Z,17.43
2018-09-05T13:03:05.634Z,19.87
2018-09-05T13:05:34.181Z,19.37
2018-09-05T13:08:02.706Z,26.10
2018-09-05T13:10:31.521Z,22.17
2018-09-05T13:13:00.023Z,16.50
2018-09-05T13:15:28.522Z,19.60
2018-09-05T13:17:57.037Z,16.00
2018-09-05T13:20:25.529Z,21.93
2018-09-05T13:22:54.107Z,20.20
2018-09-05T13:25:22.554Z,17.80
2018-09-05T13:27:51.077Z,20.00
2018-09-05T13:30:19.609Z,22.27
2018-09-05T13:32:48.146Z,18.43
2018-09-05T13:35:16.712Z,21.87
2018-09-05T13:37:45.237Z,17.97
2018-09-05T13:40:13.775Z,19.37
2018-09-05T13:42:42.322Z,20.80
2018-09-05T13:45:10.917Z,18.60
2018-09-05T13:47:39.433Z,23.30
2018-09-05T13:50:07.981Z,18.80
2018-09-05T13:52:36.523Z,20.93
2018-09-05T13:55:05.087Z,24.53
2018-09-05T13:57:33.652Z,27.33
2018-09-05T14:00:02.250Z,21.43
2018-09-05T14:02:30.796Z,19.53
2018-09-05T14:04:59.329Z,20.80
2018-09-05T14:07:27.883Z,22.37
2018-09-05T14:09:56.488Z,20.70
2018-09-05T14:12:25.686Z,22.70
2018-09-05T14:14:54.222Z,22.30
2018-09-05T14:17:22.795Z,27.47
2018-09-05T14:19:51.407Z,19.30
2018-09-05T14:22:19.982Z,21.53
2018-09-05T14:24:48.489Z,23.97
2018-09-05T14:27:17.060Z,20.77
2018-09-05T14:29:45.589Z,20.30
2018-09-05T14:32:14.174Z,25.43
2018-09-05T14:34:42.720Z,24.20
2018-09-05T14:37:11.271Z,27.13
2018-09-05T14:39:39.798Z,33.13
2018-09-05T14:42:08.561Z,27.13
2018-09-05T14:44:37.086Z,31.07
2018-09-05T14:47:05.623Z,24.70
2018-09-05T14:49:34.121Z,20.17
2018-09-05T14:52:02.643Z,22.90
2018-09-05T14:54:31.180Z,22.40
2018-09-05T14:56:59.746Z,21.20
2018-09-05T14:59:28.293Z,32.47
2018-09-05T15:01:56.803Z,26.33
2018-09-05T15:04:25.349Z,24.23
2018-09-05T15:06:54.241Z,28.83
2018-09-05T15:09:22.839Z,30.93
2018-09-05T15:11:51.640Z,28.17
2018-09-05T15:14:20.159Z,29.37
2018-09-05T15:16:48.698Z,31.50
2018-09-05T15:19:17.305Z,32.53
2018-09-05T15:21:45.958Z,27.23
2018-09-05T15:24:14.575Z,29.53
2018-09-05T15:26:43.178Z,27.13
2018-09-05T15:29:12.109Z,25.70
2018-09-05T15:31:40.695Z,29.27
2018-09-05T15:34:09.262Z,24.20
2018-09-05T15:36:37.789Z,27.17
2018-09-05T15:39:08.865Z,30.47
2018-09-05T15:41:37.614Z,30.57
2018-09-05T15:44:06.260Z,26.37
2018-09-05T15:46:34.848Z,30.93
2018-09-05T15:49:03.434Z,32.50
2018-09-05T15:51:32.010Z,29.37
2018-09-05T15:54:00.729Z,26.27
2018-09-05T15:56:29.339Z,31.13
2018-09-05T15:58:58.182Z,29.30
2018-09-05T16:01:26.871Z,30.00
2018-09-05T16:03:55.532Z,33.93
2018-09-05T16:06:24.446Z,27.40
2018-09-05T16:08:53.018Z,29.27
2018-09-05T16:11:21.628Z,28.20
2018-09-05T16:13:50.742Z,29.40
2018-09-05T16:16:19.295Z,28.13
2018-09-05T16:18:47.896Z,26.47
2018-09-05T16:21:16.402Z,30.27
2018-09-05T16:23:45.008Z,28.40
2018-09-05T16:26:13.555Z,27.70
2018-09-05T16:28:42.205Z,32.60
2018-09-05T16:31:10.786Z,29.10
2018-09-05T16:33:39.329Z,31.93
2018-09-05T16:36:08.099Z,27.70
2018-09-05T16:38:36.688Z,33.73
2018-09-05T16:41:05.358Z,33.30
2018-09-05T16:43:33.977Z,28.47
2018-09-05T16:46:02.468Z,26.73
2018-09-05T16:48:31.158Z,31.17
2018-09-05T16:50:59.718Z,33.73
2018-09-05T16:53:28.245Z,32.53
2018-09-05T16:55:56.968Z,30.10
2018-09-05T16:58:25.673Z,28.73
2018-09-05T17:00:54.274Z,29.27
2018-09-05T17:03:23.018Z,33.10
2018-09-05T17:05:51.559Z,32.07
2018-09-05T17:08:20.135Z,30.63
2018-09-05T17:10:48.891Z,28.97
2018-09-05T17:13:17.386Z,32.87
2018-09-05T17:15:46.285Z,26.27
2018-09-05T17:18:14.788Z,32.83
2018-09-05T17:20:43.963Z,33.00
2018-09-05T17:23:12.816Z,29.97
2018-09-05T17:25:41.367Z,29.20
2018-09-05T17:28:09.998Z,26.80
2018-09-05T17:30:38.545Z,28.90
2018-09-05T17:33:07.067Z,30.20
2018-09-05T17:35:35.619Z,29.40
2018-09-05T17:38:04.155Z,34.03
2018-09-05T17:40:32.713Z,26.27
2018-09-05T17:43:01.217Z,34.60
2018-09-05T17:45:29.736Z,28.63
2018-09-05T17:47:58.235Z,27.83
2018-09-05T17:50:26.757Z,26.57
2018-09-05T17:52:55.618Z,28.60
2018-09-05T17:55:24.166Z,29.60
2018-09-05T17:57:52.679Z,29.90
2018-09-05T18:00:21.214Z,28.07
2018-09-05T18:02:49.721Z,35.43
2018-09-05T18:05:18.250Z,33.03
2018-09-05T18:07:46.819Z,27.90
2018-09-05T18:10:15.389Z,31.47
2018-09-05T18:12:44.728Z,32.70
2018-09-05T18:15:13.274Z,37.60
2018-09-05T18:17:41.780Z,30.90
2018-09-05T18:20:10.341Z,28.47
2018-09-05T18:22:38.914Z,26.90
2018-09-05T18:25:07.474Z,29.43
2018-09-05T18:27:35.977Z,27.10
2018-09-05T18:30:04.762Z,27.60
2018-09-05T18:32:33.265Z,32.03
2018-09-05T18:35:01.790Z,29.03
2018-09-05T18:37:30.307Z,29.50
2018-09-05T18:39:58.842Z,26.43
2018-09-05T18:42:27.350Z,25.70
2018-09-05T18:44:55.880Z,31.70
2018-09-05T18:47:24.453Z,28.70
2018-09-05T18:49:52.986Z,27.97
2018-09-05T18:52:21.574Z,29.20
2018-09-05T18:54:50.078Z,29.07
2018-09-05T18:57:18.639Z,31.77
2018-09-05T18:59:47.217Z,28.77
2018-09-05T19:02:15.792Z,29.60
2018-09-05T19:04:44.301Z,29.33
2018-09-05T19:07:12.852Z,28.10
2018-09-05T19:09:41.360Z,28.90
2018-09-05T19:12:09.899Z,30.57
2018-09-05T19:14:38.385Z,28.60
2018-09-05T19:17:06.925Z,30.40
2018-09-05T19:19:35.428Z,29.20
2018-09-05T19:22:03.967Z,28.73
2018-09-05T19:24:32.548Z,28.47
2018-09-05T19:27:01.074Z,31.80
2018-09-05T19:29:29.578Z,32.37
2018-09-05T19:31:58.106Z,30.27
2018-09-05T19:34:26.633Z,33.17
2018-09-05T19:36:55.431Z,31.90
2018-09-05T19:39:23.946Z,29.83
2018-09-05T19:41:52.530Z,26.87
2018-09-05T19:44:21.116Z,28.57
2018-09-05T19:46:49.699Z,29.23
2018-09-05T19:49:18.267Z,29.67
2018-09-05T19:51:47.403Z,41.53
2018-09-05T19:54:16.066Z,33.47
2018-09-05T19:56:44.627Z,35.10
2018-09-05T19:59:13.222Z,35.10
2018-09-05T20:01:41.808Z,44.27
2018-09-05T20:04:10.295Z,37.67
2018-09-05T20:06:38.810Z,31.33
2018-09-05T20:09:08.418Z,39.47
2018-09-05T20:11:37.246Z,38.13
2018-09-05T20:14:06.221Z,36.57
2018-09-05T20:16:34.729Z,36.43
2018-09-05T20:19:03.228Z,41.07
2018-09-05T20:21:31.734Z,41.03
2018-09-05T20:24:00.601Z,42.07
2018-09-05T20:26:29.547Z,39.03
2018-09-05T20:28:58.116Z,39.00
2018-09-05T20:31:26.662Z,42.07
2018-09-05T20:33:55.226Z,40.20
2018-09-05T20:36:23.762Z,38.20
2018-09-05T20:38:52.555Z,44.53
2018-09-05T20:41:21.289Z,46.33
2018-09-05T20:43:49.812Z,39.27
2018-09-05T20:46:18.398Z,41.60
2018-09-05T20:48:46.952Z,36.13
2018-09-05T20:51:15.536Z,40.07
2018-09-05T20:53:44.253Z,37.97
2018-09-05T20:56:12.750Z,40.20
2018-09-05T20:58:41.366Z,37.00
2018-09-05T21:01:09.918Z,40.10
2018-09-05T21:03:38.462Z,34.30
2018-09-05T21:06:07.630Z,44.70
2018-09-05T21:08:36.254Z,31.67
2018-09-05T21:11:04.737Z,39.83
2018-09-05T21:13:33.257Z,39.73
2018-09-05T21:16:01.775Z,39.40
2018-09-05T21:18:30.398Z,39.13
2018-09-05T21:20:59.966Z,34.50
2018-09-05T21:23:30.327Z,39.63
2018-09-05T21:25:58.833Z,47.30
2018-09-05T21:28:27.802Z,39.93
2018-09-05T21:30:56.313Z,40.40
2018-09-05T21:33:25.391Z,39.00
2018-09-05T21:35:53.876Z,40.00
2018-09-05T21:38:22.391Z,42.90
2018-09-05T21:40:50.917Z,43.63
2018-09-05T21:43:19.430Z,48.93
2018-09-05T21:45:47.957Z,46.93
2018-09-05T21:48:16.491Z,38.60
2018-09-05T21:50:44.972Z,41.33
2018-09-05T21:53:13.479Z,36.70
2018-09-05T21:55:41.967Z,37.67
2018-09-05T21:58:10.599Z,37.70
2018-09-05T22:00:39.122Z,41.00
2018-09-05T22:03:07.665Z,42.17
2018-09-05T22:05:36.146Z,36.47
2018-09-05T22:08:04.678Z,35.67
2018-09-05T22:10:33.194Z,40.07
2018-09-05T22:13:01.953Z,34.63
2018-09-05T22:15:35.757Z,36.13
2018-09-05T22:18:04.282Z,35.33
2018-09-05T22:20:32.760Z,38.10
2018-09-05T22:23:01.264Z,38.27
2018-09-05T22:25:30.031Z,37.20
2018-09-05T22:27:58.951Z,38.27
2018-09-05T22:30:27.668Z,44.97
2018-09-05T22:32:56.208Z,39.73
2018-09-05T22:35:24.710Z,34.20
2018-09-05T22:37:53.224Z,35.43
2018-09-05T22:40:21.744Z,37.30
2018-09-05T22:43:01.539Z,38.03
2018-09-05T22:45:41.273Z,37.80
2018-09-05T22:49:27.876Z,36.33
2018-09-05T22:52:16.003Z,40.93
2018-09-05T22:55:01.742Z,40.97
2018-09-05T22:58:42.951Z,41.40
2018-09-05T23:01:26.722Z,41.90
2018-09-05T23:04:38.535Z,39.73
2018-09-05T23:07:17.327Z,45.87
2018-09-05T23:09:57.054Z,42.87
2018-09-05T23:12:36.813Z,62.43
2018-09-05T23:15:16.602Z,39.10
2018-09-05T23:20:04.047Z,41.70
2018-09-05T23:22:43.794Z,38.17
2018-09-05T23:25:12.465Z,36.77
2018-09-05T23:27:41.007Z,39.30
2018-09-05T23:30:09.534Z,36.07
2018-09-05T23:32:38.020Z,39.10
2018-09-05T23:35:06.553Z,36.87
2018-09-05T23:37:35.068Z,42.07
2018-09-05T23:40:03.609Z,44.23
2018-09-05T23:42:32.108Z,44.47
2018-09-05T23:45:00.817Z,47.57
2018-09-05T23:47:29.316Z,46.60
2018-09-05T23:49:57.839Z,45.97
2018-09-05T23:52:26.363Z,44.50
2018-09-05T23:54:54.873Z,41.83
2018-09-05T23:57:23.359Z,49.27
2018-09-05T23:59:51.850Z,46.80
